sensor_id;sensor_type;location;lat;lon;timestamp;pressure;altitude;pressure_sealevel;temperature;humidity
49377;BME280;35253;34.688;33.040;2023-04-30T00:02:07;100552.63;;;14.73;100.00
49377;BME280;35253;34.688;33.040;2023-04-30T00:04:33;100547.25;;;14.84;100.00
49377;BME280;35253;34.688;33.040;2023-04-30T00:06:59;100549.59;;;14.78;100.00
49377;BME280;35253;34.688;33.040;2023-04-30T00:09:25;100556.75;;;14.55;100.00
49377;BME280;35253;34.688;33.040;2023-04-30T00:11:51;100560.06;;;14.35;100.00
49377;BME280;35253;34.688;33.040;2023-04-30T00:14:16;100551.97;;;14.59;100.00
49377;BME280;35253;34.688;33.040;2023-04-30T00:16:42;100562.81;;;14.46;100.00
49377;BME280;35253;34.688;33.040;2023-04-30T00:19:08;100555.91;;;14.31;100.00
49377;BME280;35253;34.688;33.040;2023-04-30T00:21:34;100563.47;;;14.02;100.00
49377;BME280;35253;34.688;33.040;2023-04-30T00:24:00;100563.22;;;14.29;100.00
49377;BME280;35253;34.688;33.040;2023-04-30T00:26:26;100560.81;;;14.13;100.00
49377;BME280;35253;34.688;33.040;2023-04-30T00:28:52;100562.66;;;14.36;100.00
49377;BME280;35253;34.688;33.040;2023-04-30T00:31:18;100563.19;;;14.53;100.00
49377;BME280;35253;34.688;33.040;2023-04-30T00:33:44;100565.75;;;14.54;100.00
49377;BME280;35253;34.688;33.040;2023-04-30T00:36:09;100558.22;;;14.59;100.00
49377;BME280;35253;34.688;33.040;2023-04-30T00:38:35;100560.88;;;14.59;100.00
49377;BME280;35253;34.688;33.040;2023-04-30T00:41:01;100572.13;;;14.75;100.00
49377;BME280;35253;34.688;33.040;2023-04-30T00:43:26;100566.75;;;14.75;100.00
49377;BME280;35253;34.688;33.040;2023-04-30T00:45:52;100568.47;;;14.87;100.00
49377;BME280;35253;34.688;33.040;2023-04-30T00:48:18;100566.28;;;14.93;100.00
49377;BME280;35253;34.688;33.040;2023-04-30T00:50:44;100571.66;;;14.93;100.00
49377;BME280;35253;34.688;33.040;2023-04-30T00:53:10;100563.84;;;14.89;100.00
49377;BME280;35253;34.688;33.040;2023-04-30T00:55:38;100575.09;;;14.95;100.00
49377;BME280;35253;34.688;33.040;2023-04-30T00:58:04;100561.78;;;14.93;100.00
49377;BME280;35253;34.688;33.040;2023-04-30T01:00:30;100562.50;;;14.84;100.00
49377;BME280;35253;34.688;33.040;2023-04-30T01:02:56;100566.53;;;14.89;100.00
49377;BME280;35253;34.688;33.040;2023-04-30T01:05:22;100564.22;;;14.74;100.00
49377;BME280;35253;34.688;33.040;2023-04-30T01:07:48;100564.97;;;14.87;100.00
49377;BME280;35253;34.688;33.040;2023-04-30T01:10:15;100571.16;;;14.76;100.00
49377;BME280;35253;34.688;33.040;2023-04-30T01:13:22;100573.09;;;14.74;100.00
49377;BME280;35253;34.688;33.040;2023-04-30T01:16:01;100574.66;;;14.66;100.00
49377;BME280;35253;34.688;33.040;2023-04-30T01:18:38;100585.94;;;14.36;100.00
49377;BME280;35253;34.688;33.040;2023-04-30T01:21:06;100577.22;;;14.56;100.00
49377;BME280;35253;34.688;33.040;2023-04-30T01:29:07;100576.63;;;14.29;100.00
49377;BME280;35253;34.688;33.040;2023-04-30T01:31:34;100569.78;;;14.25;100.00
49377;BME280;35253;34.688;33.040;2023-04-30T01:34:00;100563.16;;;14.18;100.00
49377;BME280;35253;34.688;33.040;2023-04-30T01:36:41;100572.41;;;14.14;100.00
49377;BME280;35253;34.688;33.040;2023-04-30T01:44:41;100578.53;;;13.92;100.00
49377;BME280;35253;34.688;33.040;2023-04-30T01:47:20;100584.03;;;13.90;100.00
49377;BME280;35253;34.688;33.040;2023-04-30T01:52:44;100579.34;;;13.81;100.00
49377;BME280;35253;34.688;33.040;2023-04-30T01:55:16;100569.50;;;13.69;100.00
49377;BME280;35253;34.688;33.040;2023-04-30T01:57:51;100580.94;;;13.84;100.00
49377;BME280;35253;34.688;33.040;2023-04-30T02:00:18;100577.91;;;13.88;100.00
49377;BME280;35253;34.688;33.040;2023-04-30T02:02:44;100569.16;;;13.86;100.00
49377;BME280;35253;34.688;33.040;2023-04-30T02:05:10;100560.44;;;13.83;100.00
49377;BME280;35253;34.688;33.040;2023-04-30T02:07:40;100568.09;;;13.76;100.00
49377;BME280;35253;34.688;33.040;2023-04-30T02:10:08;100564.22;;;13.80;100.00
49377;BME280;35253;34.688;33.040;2023-04-30T02:12:34;100564.28;;;13.91;100.00
49377;BME280;35253;34.688;33.040;2023-04-30T02:15:01;100563.53;;;13.89;100.00
49377;BME280;35253;34.688;33.040;2023-04-30T02:17:27;100564.56;;;13.99;100.00
49377;BME280;35253;34.688;33.040;2023-04-30T02:19:53;100561.53;;;14.04;100.00
49377;BME280;35253;34.688;33.040;2023-04-30T02:22:18;100576.19;;;13.87;100.00
49377;BME280;35253;34.688;33.040;2023-04-30T02:24:44;100572.69;;;13.50;100.00
49377;BME280;35253;34.688;33.040;2023-04-30T02:27:10;100574.44;;;13.39;100.00
49377;BME280;35253;34.688;33.040;2023-04-30T02:29:36;100582.28;;;13.66;100.00
49377;BME280;35253;34.688;33.040;2023-04-30T02:32:01;100585.03;;;13.77;100.00
49377;BME280;35253;34.688;33.040;2023-04-30T02:34:27;100583.75;;;13.46;100.00
49377;BME280;35253;34.688;33.040;2023-04-30T02:36:53;100587.19;;;13.35;100.00
49377;BME280;35253;34.688;33.040;2023-04-30T02:39:18;100588.94;;;13.24;100.00
49377;BME280;35253;34.688;33.040;2023-04-30T02:41:44;100594.56;;;13.44;100.00
49377;BME280;35253;34.688;33.040;2023-04-30T02:44:10;100595.00;;;13.51;100.00
49377;BME280;35253;34.688;33.040;2023-04-30T02:46:36;100597.81;;;13.61;100.00
49377;BME280;35253;34.688;33.040;2023-04-30T02:49:02;100600.25;;;13.76;100.00
49377;BME280;35253;34.688;33.040;2023-04-30T02:51:28;100613.09;;;13.84;100.00
49377;BME280;35253;34.688;33.040;2023-04-30T02:53:53;100625.59;;;13.60;100.00
49377;BME280;35253;34.688;33.040;2023-04-30T02:56:19;100610.97;;;13.76;100.00
49377;BME280;35253;34.688;33.040;2023-04-30T02:58:45;100610.06;;;13.88;100.00
49377;BME280;35253;34.688;33.040;2023-04-30T03:01:12;100615.88;;;13.82;100.00
49377;BME280;35253;34.688;33.040;2023-04-30T03:03:38;100607.00;;;13.82;100.00
49377;BME280;35253;34.688;33.040;2023-04-30T03:06:03;100621.75;;;13.87;100.00
49377;BME280;35253;34.688;33.040;2023-04-30T03:08:29;100629.50;;;13.79;100.00
49377;BME280;35253;34.688;33.040;2023-04-30T03:10:55;100631.94;;;13.82;100.00
49377;BME280;35253;34.688;33.040;2023-04-30T03:13:21;100638.34;;;13.92;100.00
49377;BME280;35253;34.688;33.040;2023-04-30T03:15:46;100638.81;;;13.86;100.00
49377;BME280;35253;34.688;33.040;2023-04-30T03:18:12;100635.81;;;13.78;100.00
49377;BME280;35253;34.688;33.040;2023-04-30T03:20:38;100639.06;;;13.71;100.00
49377;BME280;35253;34.688;33.040;2023-04-30T03:23:04;100639.78;;;13.85;100.00
49377;BME280;35253;34.688;33.040;2023-04-30T03:25:29;100645.47;;;13.81;100.00
49377;BME280;35253;34.688;33.040;2023-04-30T03:27:55;100645.47;;;13.81;100.00
49377;BME280;35253;34.688;33.040;2023-04-30T03:30:21;100639.84;;;13.96;100.00
49377;BME280;35253;34.688;33.040;2023-04-30T03:32:46;100662.00;;;14.11;100.00
49377;BME280;35253;34.688;33.040;2023-04-30T03:35:12;100658.72;;;14.19;100.00
49377;BME280;35253;34.688;33.040;2023-04-30T03:37:38;100654.56;;;14.15;100.00
49377;BME280;35253;34.688;33.040;2023-04-30T03:40:04;100657.53;;;14.23;100.00
49377;BME280;35253;34.688;33.040;2023-04-30T03:42:31;100668.00;;;14.38;100.00
49377;BME280;35253;34.688;33.040;2023-04-30T03:44:56;100666.19;;;14.39;100.00
49377;BME280;35253;34.688;33.040;2023-04-30T03:47:22;100655.72;;;14.23;100.00
49377;BME280;35253;34.688;33.040;2023-04-30T03:49:48;100667.31;;;14.35;100.00
49377;BME280;35253;34.688;33.040;2023-04-30T03:52:19;100671.09;;;14.09;100.00
49377;BME280;35253;34.688;33.040;2023-04-30T03:54:45;100667.44;;;14.10;100.00
49377;BME280;35253;34.688;33.040;2023-04-30T03:57:11;100668.03;;;14.26;100.00
49377;BME280;35253;34.688;33.040;2023-04-30T03:59:39;100675.50;;;14.33;100.00
49377;BME280;35253;34.688;33.040;2023-04-30T04:02:06;100672.03;;;14.44;100.00
49377;BME280;35253;34.688;33.040;2023-04-30T04:04:32;100671.13;;;14.56;100.00
49377;BME280;35253;34.688;33.040;2023-04-30T04:06:58;100664.84;;;14.68;100.00
49377;BME280;35253;34.688;33.040;2023-04-30T04:09:24;100671.56;;;14.74;100.00
49377;BME280;35253;34.688;33.040;2023-04-30T04:11:49;100670.03;;;14.94;100.00
49377;BME280;35253;34.688;33.040;2023-04-30T04:14:15;100668.09;;;15.07;100.00
49377;BME280;35253;34.688;33.040;2023-04-30T04:16:42;100677.56;;;14.88;100.00
49377;BME280;35253;34.688;33.040;2023-04-30T04:19:09;100677.06;;;14.83;100.00
49377;BME280;35253;34.688;33.040;2023-04-30T04:21:35;100681.19;;;14.65;100.00
49377;BME280;35253;34.688;33.040;2023-04-30T04:24:01;100675.56;;;14.68;100.00
49377;BME280;35253;34.688;33.040;2023-04-30T04:26:36;100672.34;;;14.98;100.00
49377;BME280;35253;34.688;33.040;2023-04-30T04:29:02;100681.81;;;15.26;100.00
49377;BME280;35253;34.688;33.040;2023-04-30T04:31:29;100680.88;;;15.60;100.00
49377;BME280;35253;34.688;33.040;2023-04-30T04:33:58;100687.22;;;15.93;100.00
49377;BME280;35253;34.688;33.040;2023-04-30T04:36:26;100687.47;;;15.67;100.00
49377;BME280;35253;34.688;33.040;2023-04-30T04:38:53;100691.59;;;15.94;100.00
49377;BME280;35253;34.688;33.040;2023-04-30T04:41:20;100685.16;;;16.28;100.00
49377;BME280;35253;34.688;33.040;2023-04-30T04:43:47;100682.44;;;16.39;100.00
49377;BME280;35253;34.688;33.040;2023-04-30T04:46:13;100686.53;;;16.54;100.00
49377;BME280;35253;34.688;33.040;2023-04-30T04:48:42;100678.25;;;16.57;100.00
49377;BME280;35253;34.688;33.040;2023-04-30T04:51:09;100685.19;;;16.92;100.00
49377;BME280;35253;34.688;33.040;2023-04-30T04:53:35;100694.44;;;17.20;100.00
49377;BME280;35253;34.688;33.040;2023-04-30T04:56:01;100684.56;;;17.30;100.00
49377;BME280;35253;34.688;33.040;2023-04-30T04:58:27;100695.84;;;17.44;100.00
49377;BME280;35253;34.688;33.040;2023-04-30T05:00:55;100697.50;;;17.36;100.00
49377;BME280;35253;34.688;33.040;2023-04-30T05:03:22;100698.03;;;17.30;100.00
49377;BME280;35253;34.688;33.040;2023-04-30T05:05:47;100699.44;;;17.75;100.00
49377;BME280;35253;34.688;33.040;2023-04-30T05:08:13;100700.50;;;17.93;100.00
49377;BME280;35253;34.688;33.040;2023-04-30T05:10:39;100707.72;;;17.93;100.00
49377;BME280;35253;34.688;33.040;2023-04-30T05:13:05;100711.75;;;18.08;100.00
49377;BME280;35253;34.688;33.040;2023-04-30T05:15:32;100706.66;;;18.15;100.00
49377;BME280;35253;34.688;33.040;2023-04-30T05:17:58;100701.88;;;18.37;100.00
49377;BME280;35253;34.688;33.040;2023-04-30T05:20:24;100709.03;;;18.58;100.00
49377;BME280;35253;34.688;33.040;2023-04-30T05:22:50;100714.88;;;18.82;100.00
49377;BME280;35253;34.688;33.040;2023-04-30T05:25:16;100710.88;;;19.05;100.00
49377;BME280;35253;34.688;33.040;2023-04-30T05:27:42;100711.00;;;19.13;100.00
49377;BME280;35253;34.688;33.040;2023-04-30T05:30:08;100713.13;;;19.00;100.00
49377;BME280;35253;34.688;33.040;2023-04-30T05:32:34;100713.56;;;18.96;100.00
49377;BME280;35253;34.688;33.040;2023-04-30T05:35:00;100717.28;;;19.04;100.00
49377;BME280;35253;34.688;33.040;2023-04-30T05:37:26;100713.25;;;19.27;100.00
49377;BME280;35253;34.688;33.040;2023-04-30T05:39:51;100714.78;;;19.40;100.00
49377;BME280;35253;34.688;33.040;2023-04-30T05:42:20;100719.00;;;18.86;100.00
49377;BME280;35253;34.688;33.040;2023-04-30T05:44:47;100717.00;;;19.07;100.00
49377;BME280;35253;34.688;33.040;2023-04-30T05:47:14;100717.00;;;18.98;100.00
49377;BME280;35253;34.688;33.040;2023-04-30T05:49:40;100714.41;;;19.15;100.00
49377;BME280;35253;34.688;33.040;2023-04-30T05:52:06;100718.97;;;18.96;100.00
49377;BME280;35253;34.688;33.040;2023-04-30T05:54:32;100725.25;;;18.77;100.00
49377;BME280;35253;34.688;33.040;2023-04-30T05:56:58;100724.25;;;18.59;100.00
49377;BME280;35253;34.688;33.040;2023-04-30T05:59:24;100730.91;;;18.74;100.00
49377;BME280;35253;34.688;33.040;2023-04-30T06:01:53;100737.78;;;18.78;100.00
49377;BME280;35253;34.688;33.040;2023-04-30T06:04:19;100723.50;;;19.33;100.00
49377;BME280;35253;34.688;33.040;2023-04-30T06:06:45;100726.03;;;19.35;100.00
49377;BME280;35253;34.688;33.040;2023-04-30T06:09:11;100733.16;;;19.26;100.00
49377;BME280;35253;34.688;33.040;2023-04-30T06:11:38;100736.88;;;19.25;100.00
49377;BME280;35253;34.688;33.040;2023-04-30T06:14:04;100729.78;;;19.15;100.00
49377;BME280;35253;34.688;33.040;2023-04-30T06:16:31;100736.63;;;18.90;100.00
49377;BME280;35253;34.688;33.040;2023-04-30T06:18:57;100740.59;;;18.67;100.00
49377;BME280;35253;34.688;33.040;2023-04-30T06:21:22;100732.63;;;18.75;100.00
49377;BME280;35253;34.688;33.040;2023-04-30T06:23:51;100741.00;;;18.62;100.00
49377;BME280;35253;34.688;33.040;2023-04-30T06:26:18;100749.00;;;18.64;100.00
49377;BME280;35253;34.688;33.040;2023-04-30T06:28:44;100752.22;;;18.58;100.00
49377;BME280;35253;34.688;33.040;2023-04-30T06:31:17;100746.00;;;18.76;100.00
49377;BME280;35253;34.688;33.040;2023-04-30T06:33:43;100755.38;;;18.72;100.00
49377;BME280;35253;34.688;33.040;2023-04-30T06:36:09;100750.25;;;18.69;100.00
49377;BME280;35253;34.688;33.040;2023-04-30T06:38:35;100750.25;;;18.60;100.00
49377;BME280;35253;34.688;33.040;2023-04-30T06:41:01;100752.78;;;18.52;100.00
49377;BME280;35253;34.688;33.040;2023-04-30T06:43:26;100757.09;;;18.64;100.00
49377;BME280;35253;34.688;33.040;2023-04-30T06:45:52;100750.69;;;18.84;100.00
49377;BME280;35253;34.688;33.040;2023-04-30T06:48:19;100755.38;;;18.91;100.00
49377;BME280;35253;34.688;33.040;2023-04-30T06:50:45;100757.69;;;18.86;100.00
49377;BME280;35253;34.688;33.040;2023-04-30T06:53:11;100764.50;;;18.81;100.00
49377;BME280;35253;34.688;33.040;2023-04-30T06:55:38;100776.28;;;18.80;100.00
49377;BME280;35253;34.688;33.040;2023-04-30T06:58:04;100766.91;;;18.84;100.00
49377;BME280;35253;34.688;33.040;2023-04-30T07:00:30;100765.63;;;18.88;100.00
49377;BME280;35253;34.688;33.040;2023-04-30T07:02:56;100780.00;;;19.08;100.00
49377;BME280;35253;34.688;33.040;2023-04-30T07:05:25;100777.56;;;18.76;100.00
49377;BME280;35253;34.688;33.040;2023-04-30T07:07:51;100776.44;;;18.69;100.00
49377;BME280;35253;34.688;33.040;2023-04-30T07:10:17;100786.81;;;18.73;100.00
49377;BME280;35253;34.688;33.040;2023-04-30T07:15:10;100785.09;;;18.72;100.00
49377;BME280;35253;34.688;33.040;2023-04-30T07:17:36;100787.66;;;18.93;100.00
49377;BME280;35253;34.688;33.040;2023-04-30T07:22:30;100792.94;;;18.85;100.00
49377;BME280;35253;34.688;33.040;2023-04-30T07:24:57;100787.53;;;18.85;100.00
49377;BME280;35253;34.688;33.040;2023-04-30T07:27:22;100789.22;;;19.05;100.00
49377;BME280;35253;34.688;33.040;2023-04-30T07:29:48;100785.28;;;19.00;100.00
49377;BME280;35253;34.688;33.040;2023-04-30T07:32:17;100787.38;;;18.96;100.00
49377;BME280;35253;34.688;33.040;2023-04-30T07:34:43;100781.84;;;18.88;100.00
49377;BME280;35253;34.688;33.040;2023-04-30T07:37:09;100798.63;;;19.01;100.00
49377;BME280;35253;34.688;33.040;2023-04-30T07:39:35;100793.09;;;19.12;100.00
49377;BME280;35253;34.688;33.040;2023-04-30T07:42:02;100794.34;;;19.18;100.00
49377;BME280;35253;34.688;33.040;2023-04-30T07:44:28;100800.75;;;19.26;100.00
49377;BME280;35253;34.688;33.040;2023-04-30T07:46:55;100798.03;;;19.26;100.00
49377;BME280;35253;34.688;33.040;2023-04-30T07:49:21;100808.59;;;19.20;100.00
49377;BME280;35253;34.688;33.040;2023-04-30T07:51:47;100798.19;;;19.15;100.00
49377;BME280;35253;34.688;33.040;2023-04-30T07:54:13;100796.63;;;19.22;100.00
49377;BME280;35253;34.688;33.040;2023-04-30T07:56:39;100801.72;;;19.35;100.00
49377;BME280;35253;34.688;33.040;2023-04-30T07:59:06;100801.44;;;19.57;100.00
49377;BME280;35253;34.688;33.040;2023-04-30T08:01:32;100801.59;;;19.27;100.00
49377;BME280;35253;34.688;33.040;2023-04-30T08:03:59;100809.16;;;19.14;100.00
49377;BME280;35253;34.688;33.040;2023-04-30T08:06:25;100805.72;;;18.92;100.00
49377;BME280;35253;34.688;33.040;2023-04-30T08:08:55;100807.16;;;19.25;100.00
49377;BME280;35253;34.688;33.040;2023-04-30T08:11:21;100817.69;;;19.38;100.00
49377;BME280;35253;34.688;33.040;2023-04-30T08:13:47;100808.88;;;19.46;100.00
49377;BME280;35253;34.688;33.040;2023-04-30T08:16:13;100804.00;;;19.68;100.00
49377;BME280;35253;34.688;33.040;2023-04-30T08:18:39;100812.28;;;19.57;100.00
49377;BME280;35253;34.688;33.040;2023-04-30T08:21:10;100805.19;;;19.47;100.00
49377;BME280;35253;34.688;33.040;2023-04-30T08:23:36;100811.44;;;19.57;100.00
49377;BME280;35253;34.688;33.040;2023-04-30T08:26:02;100815.72;;;19.30;100.00
49377;BME280;35253;34.688;33.040;2023-04-30T08:28:28;100798.91;;;19.46;100.00
49377;BME280;35253;34.688;33.040;2023-04-30T08:30:54;100804.56;;;19.62;100.00
49377;BME280;35253;34.688;33.040;2023-04-30T08:33:19;100808.88;;;19.46;100.00
49377;BME280;35253;34.688;33.040;2023-04-30T08:35:45;100798.31;;;19.62;100.00
49377;BME280;35253;34.688;33.040;2023-04-30T08:38:11;100796.63;;;19.51;100.00
49377;BME280;35253;34.688;33.040;2023-04-30T08:40:38;100804.63;;;19.43;100.00
49377;BME280;35253;34.688;33.040;2023-04-30T08:43:08;100803.16;;;19.49;100.00
49377;BME280;35253;34.688;33.040;2023-04-30T08:45:36;100800.03;;;19.63;100.00
49377;BME280;35253;34.688;33.040;2023-04-30T08:48:02;100808.56;;;19.49;100.00
49377;BME280;35253;34.688;33.040;2023-04-30T08:50:32;100800.03;;;19.63;100.00
49377;BME280;35253;34.688;33.040;2023-04-30T08:53:00;100807.25;;;19.72;100.00
49377;BME280;35253;34.688;33.040;2023-04-30T08:55:27;100807.91;;;19.93;100.00
49377;BME280;35253;34.688;33.040;2023-04-30T08:57:52;100807.06;;;19.93;100.00
49377;BME280;35253;34.688;33.040;2023-04-30T09:00:18;100805.81;;;19.87;100.00
49377;BME280;35253;34.688;33.040;2023-04-30T09:02:45;100803.13;;;19.77;100.00
49377;BME280;35253;34.688;33.040;2023-04-30T09:05:14;100806.66;;;19.88;100.00
49377;BME280;35253;34.688;33.040;2023-04-30T09:07:41;100816.78;;;19.86;100.00
49377;BME280;35253;34.688;33.040;2023-04-30T09:10:20;100808.97;;;19.73;100.00
49377;BME280;35253;34.688;33.040;2023-04-30T09:15:26;100814.97;;;19.57;100.00
49377;BME280;35253;34.688;33.040;2023-04-30T09:18:14;100810.16;;;19.61;100.00
49377;BME280;35253;34.688;33.040;2023-04-30T09:20:57;100804.59;;;20.09;100.00
49377;BME280;35253;34.688;33.040;2023-04-30T09:23:24;100815.09;;;20.21;100.00
49377;BME280;35253;34.688;33.040;2023-04-30T09:25:52;100827.81;;;20.48;100.00
49377;BME280;35253;34.688;33.040;2023-04-30T09:28:19;100823.47;;;20.18;100.00
49377;BME280;35253;34.688;33.040;2023-04-30T09:30:49;100819.38;;;20.14;100.00
49377;BME280;35253;34.688;33.040;2023-04-30T09:33:15;100824.19;;;20.20;100.00
49377;BME280;35253;34.688;33.040;2023-04-30T09:35:41;100828.78;;;19.73;100.00
49377;BME280;35253;34.688;33.040;2023-04-30T09:38:07;100825.75;;;19.76;100.00
49377;BME280;35253;34.688;33.040;2023-04-30T09:40:40;100836.47;;;19.59;100.00
49377;BME280;35253;34.688;33.040;2023-04-30T09:43:07;100847.00;;;19.71;100.00
49377;BME280;35253;34.688;33.040;2023-04-30T09:45:43;100848.88;;;19.61;100.00
49377;BME280;35253;34.688;33.040;2023-04-30T09:48:12;100842.59;;;19.61;100.00
49377;BME280;35253;34.688;33.040;2023-04-30T09:50:40;100840.47;;;19.64;100.00
49377;BME280;35253;34.688;33.040;2023-04-30T09:53:07;100845.56;;;19.58;100.00
49377;BME280;35253;34.688;33.040;2023-04-30T09:55:35;100858.97;;;19.78;100.00
49377;BME280;35253;34.688;33.040;2023-04-30T09:58:05;100848.28;;;19.77;100.00
49377;BME280;35253;34.688;33.040;2023-04-30T10:00:35;100859.09;;;19.77;100.00
49377;BME280;35253;34.688;33.040;2023-04-30T10:03:06;100843.00;;;19.66;100.00
49377;BME280;35253;34.688;33.040;2023-04-30T10:05:42;100849.56;;;19.63;100.00
49377;BME280;35253;34.688;33.040;2023-04-30T10:08:24;100847.44;;;19.57;100.00
49377;BME280;35253;34.688;33.040;2023-04-30T10:11:02;100863.81;;;19.46;100.00
49377;BME280;35253;34.688;33.040;2023-04-30T10:13:36;100861.69;;;20.15;100.00
49377;BME280;35253;34.688;33.040;2023-04-30T10:16:07;100853.69;;;19.77;100.00
49377;BME280;35253;34.688;33.040;2023-04-30T10:18:38;100870.03;;;19.75;100.00
49377;BME280;35253;34.688;33.040;2023-04-30T10:21:06;100863.81;;;19.56;100.00
49377;BME280;35253;34.688;33.040;2023-04-30T10:23:39;100862.06;;;19.35;100.00
49377;BME280;35253;34.688;33.040;2023-04-30T10:26:11;100865.25;;;19.60;100.00
49377;BME280;35253;34.688;33.040;2023-04-30T10:28:38;100866.91;;;19.80;100.00
49377;BME280;35253;34.688;33.040;2023-04-30T10:31:06;100873.16;;;19.90;100.00
49377;BME280;35253;34.688;33.040;2023-04-30T10:36:45;100887.13;;;19.95;100.00
49377;BME280;35253;34.688;33.040;2023-04-30T10:39:16;100875.06;;;20.27;100.00
49377;BME280;35253;34.688;33.040;2023-04-30T10:41:44;100871.31;;;20.27;100.00
49377;BME280;35253;34.688;33.040;2023-04-30T10:44:11;100881.56;;;19.87;100.00
49377;BME280;35253;34.688;33.040;2023-04-30T10:46:37;100877.16;;;19.76;100.00
49377;BME280;35253;34.688;33.040;2023-04-30T10:49:07;100880.28;;;20.01;100.00
49377;BME280;35253;34.688;33.040;2023-04-30T10:51:47;100883.25;;;19.88;100.00
49377;BME280;35253;34.688;33.040;2023-04-30T10:54:23;100881.69;;;19.95;100.00
49377;BME280;35253;34.688;33.040;2023-04-30T10:56:50;100889.72;;;19.49;100.00
49377;BME280;35253;34.688;33.040;2023-04-30T10:59:17;100872.63;;;19.77;100.00
49377;BME280;35253;34.688;33.040;2023-04-30T11:01:59;100884.44;;;19.76;100.00
49377;BME280;35253;34.688;33.040;2023-04-30T11:04:26;100871.69;;;20.05;100.00
49377;BME280;35253;34.688;33.040;2023-04-30T11:09:41;100882.50;;;20.61;100.00
49377;BME280;35253;34.688;33.040;2023-04-30T11:12:19;100890.22;;;20.56;100.00
49377;BME280;35253;34.688;33.040;2023-04-30T11:14:59;100876.38;;;20.59;100.00
49377;BME280;35253;34.688;33.040;2023-04-30T11:17:26;100870.34;;;20.29;100.00
49377;BME280;35253;34.688;33.040;2023-04-30T11:19:53;100877.13;;;20.52;100.00
49377;BME280;35253;34.688;33.040;2023-04-30T11:22:24;100877.28;;;21.23;100.00
49377;BME280;35253;34.688;33.040;2023-04-30T11:25:10;100887.75;;;20.36;100.00
49377;BME280;35253;34.688;33.040;2023-04-30T11:27:41;100881.81;;;20.03;100.00
49377;BME280;35253;34.688;33.040;2023-04-30T11:30:11;100881.53;;;20.53;100.00
49377;BME280;35253;34.688;33.040;2023-04-30T11:32:39;100880.47;;;20.91;100.00
49377;BME280;35253;34.688;33.040;2023-04-30T11:35:16;100867.78;;;21.19;100.00
49377;BME280;35253;34.688;33.040;2023-04-30T11:37:44;100870.25;;;21.02;100.00
49377;BME280;35253;34.688;33.040;2023-04-30T11:40:14;100862.66;;;20.88;100.00
49377;BME280;35253;34.688;33.040;2023-04-30T11:42:42;100868.13;;;21.06;100.00
49377;BME280;35253;34.688;33.040;2023-04-30T11:45:13;100858.75;;;20.73;100.00
49377;BME280;35253;34.688;33.040;2023-04-30T11:47:58;100858.34;;;20.41;100.00
49377;BME280;35253;34.688;33.040;2023-04-30T11:50:26;100862.13;;;20.57;100.00
49377;BME280;35253;34.688;33.040;2023-04-30T11:52:55;100860.41;;;20.84;100.00
49377;BME280;35253;34.688;33.040;2023-04-30T11:55:23;100855.69;;;20.86;100.00
49377;BME280;35253;34.688;33.040;2023-04-30T11:57:54;100846.56;;;21.04;100.00
49377;BME280;35253;34.688;33.040;2023-04-30T12:00:25;100847.81;;;21.10;100.00
49377;BME280;35253;34.688;33.040;2023-04-30T12:02:52;100856.06;;;21.18;100.00
49377;BME280;35253;34.688;33.040;2023-04-30T12:05:23;100866.28;;;20.79;100.00
49377;BME280;35253;34.688;33.040;2023-04-30T12:08:09;100838.38;;;20.42;100.00
49377;BME280;35253;34.688;33.040;2023-04-30T12:10:35;100852.44;;;20.55;100.00
49377;BME280;35253;34.688;33.040;2023-04-30T12:13:01;100845.34;;;20.72;100.00
49377;BME280;35253;34.688;33.040;2023-04-30T12:15:27;100846.16;;;20.99;100.00
49377;BME280;35253;34.688;33.040;2023-04-30T12:17:58;100839.34;;;20.95;100.00
49377;BME280;35253;34.688;33.040;2023-04-30T12:20:29;100839.13;;;21.06;100.00
49377;BME280;35253;34.688;33.040;2023-04-30T12:22:56;100836.78;;;20.94;100.00
49377;BME280;35253;34.688;33.040;2023-04-30T12:25:23;100854.09;;;21.10;100.00
49377;BME280;35253;34.688;33.040;2023-04-30T12:27:50;100843.31;;;20.56;100.00
49377;BME280;35253;34.688;33.040;2023-04-30T12:30:24;100832.75;;;20.80;100.00
49377;BME280;35253;34.688;33.040;2023-04-30T12:32:52;100842.78;;;20.97;100.00
49377;BME280;35253;34.688;33.040;2023-04-30T12:35:21;100832.97;;;20.69;100.00
49377;BME280;35253;34.688;33.040;2023-04-30T12:37:49;100844.41;;;20.63;100.00
49377;BME280;35253;34.688;33.040;2023-04-30T12:40:17;100859.34;;;20.67;100.00
49377;BME280;35253;34.688;33.040;2023-04-30T12:42:44;100856.75;;;20.48;100.00
49377;BME280;35253;34.688;33.040;2023-04-30T12:45:12;100837.38;;;20.43;100.00
49377;BME280;35253;34.688;33.040;2023-04-30T12:47:39;100833.91;;;20.50;100.00
49377;BME280;35253;34.688;33.040;2023-04-30T12:50:08;100821.31;;;20.59;100.00
49377;BME280;35253;34.688;33.040;2023-04-30T12:53:07;100833.88;;;20.60;100.00
49377;BME280;35253;34.688;33.040;2023-04-30T12:55:40;100835.09;;;20.48;100.00
49377;BME280;35253;34.688;33.040;2023-04-30T13:06:29;100822.53;;;20.47;100.00
49377;BME280;35253;34.688;33.040;2023-04-30T13:08:57;100837.69;;;20.40;100.00
49377;BME280;35253;34.688;33.040;2023-04-30T13:11:23;100824.31;;;20.29;100.00